Time;durP1;ratioP1;P1;durP2;ratioP2;P2;SDS_P1;SDS_P2;PMS_P1;PMS_P2;Temp;Humidity;BMP_temperature;BMP_pressure;BME280_temperature;BME280_humidity;BME280_pressure;Samples;Min_cycle;Max_cycle;Signal;HPM_P1;HPM_P2
2023/04/26 00:02:23;;;;;;;0.20;0.20;;;;;;;;;;6274560;22;20396;-85
2023/04/26 00:04:57;;;;;;;0.20;0.20;;;;;;;;;;6272759;22;20011;-85
2023/04/26 00:07:24;;;;;;;0.20;0.20;;;;;;;;;;6274754;22;20506;-85
2023/04/26 00:10:06;;;;;;;0.30;0.30;;;;;;;;;;6272132;22;20027;-84
2023/04/26 00:12:35;;;;;;;0.20;0.20;;;;;;;;;;6273129;22;20027;-85
2023/04/26 00:15:02;;;;;;;0.10;0.10;;;;;;;;;;6271632;22;20011;-85
2023/04/26 00:17:28;;;;;;;0.20;0.20;;;;;;;;;;6274605;22;20023;-85
2023/04/26 00:19:57;;;;;;;0.20;0.20;;;;;;;;;;6275179;22;20015;-85
2023/04/26 00:22:30;;;;;;;0.15;0.15;;;;;;;;;;6272446;22;20016;-85
2023/04/26 00:25:08;;;;;;;0.20;0.20;;;;;;;;;;6274556;22;20181;-85
2023/04/26 00:27:34;;;;;;;0.20;0.20;;;;;;;;;;6273404;22;20020;-85
2023/04/26 00:30:04;;;;;;;0.20;0.20;;;;;;;;;;6270976;22;20058;-84
2023/04/26 00:32:30;;;;;;;0.20;0.20;;;;;;;;;;6275171;22;20023;-84
2023/04/26 00:34:59;;;;;;;0.20;0.20;;;;;;;;;;6274062;22;20467;-85
2023/04/26 00:37:26;;;;;;;0.20;0.20;;;;;;;;;;6275514;22;20011;-84
2023/04/26 00:39:56;;;;;;;0.20;0.20;;;;;;;;;;6274932;22;20023;-84
2023/04/26 00:42:31;;;;;;;0.13;0.13;;;;;;;;;;6275569;22;20020;-85
2023/04/26 00:47:29;;;;;;;0.20;0.20;;;;;;;;;;6273957;22;20012;-84
2023/04/26 00:49:58;;;;;;;0.20;0.20;;;;;;;;;;6274335;22;20332;-85
2023/04/26 00:52:25;;;;;;;0.20;0.20;;;;;;;;;;6274755;22;20399;-85
2023/04/26 00:54:53;;;;;;;0.20;0.20;;;;;;;;;;6273093;22;20061;-85
2023/04/26 00:57:19;;;;;;;0.20;0.20;;;;;;;;;;6274048;22;20016;-85
2023/04/26 00:59:45;;;;;;;0.20;0.20;;;;;;;;;;6272835;22;20026;-85
2023/04/26 01:02:14;;;;;;;0.20;0.20;;;;;;;;;;6275677;22;20099;-85
2023/04/26 01:04:50;;;;;;;0.20;0.20;;;;;;;;;;6275014;22;20022;-86
2023/04/26 01:07:29;;;;;;;0.20;0.20;;;;;;;;;;6274305;22;20020;-85
2023/04/26 01:10:05;;;;;;;0.20;0.20;;;;;;;;;;6275133;22;20452;-85
2023/04/26 01:12:31;;;;;;;0.20;0.20;;;;;;;;;;6275907;22;20081;-85
2023/04/26 01:15:33;;;;;;;0.20;0.20;;;;;;;;;;6273759;22;20016;-85
2023/04/26 01:18:00;;;;;;;0.22;0.22;;;;;;;;;;6289107;22;20349;-86
2023/04/26 01:20:26;;;;;;;0.20;0.20;;;;;;;;;;6300840;22;20014;-85
2023/04/26 01:22:52;;;;;;;0.20;0.20;;;;;;;;;;6279177;22;20020;-85
2023/04/26 01:25:19;;;;;;;0.20;0.20;;;;;;;;;;6274713;22;20008;-85
2023/04/26 01:27:50;;;;;;;0.20;0.20;;;;;;;;;;6273170;22;20030;-84
2023/04/26 01:30:17;;;;;;;0.20;0.20;;;;;;;;;;6272586;22;20086;-84
2023/04/26 01:32:43;;;;;;;0.10;0.10;;;;;;;;;;6272090;22;20031;-85
2023/04/26 01:35:21;;;;;;;0.20;0.20;;;;;;;;;;6271745;22;20309;-85
2023/04/26 01:37:47;;;;;;;0.20;0.20;;;;;;;;;;6272483;22;20484;-84
2023/04/26 01:40:17;;;;;;;0.20;0.20;;;;;;;;;;6269718;22;20012;-84
2023/04/26 01:42:52;;;;;;;0.10;0.10;;;;;;;;;;6270495;22;20092;-85
2023/04/26 01:45:18;;;;;;;0.20;0.20;;;;;;;;;;6269544;22;20099;-85
2023/04/26 01:47:45;;;;;;;0.20;0.20;;;;;;;;;;6272137;22;20535;-85
2023/04/26 01:50:14;;;;;;;0.20;0.20;;;;;;;;;;6272977;22;20491;-85
2023/04/26 01:52:49;;;;;;;0.20;0.20;;;;;;;;;;6271800;22;20019;-85
2023/04/26 01:55:24;;;;;;;0.20;0.20;;;;;;;;;;6270289;22;20016;-85
2023/04/26 01:57:50;;;;;;;0.20;0.20;;;;;;;;;;6271674;22;20019;-85
2023/04/26 02:03:32;;;;;;;0.10;0.10;;;;;;;;;;6274234;22;20026;-84
2023/04/26 02:05:58;;;;;;;0.20;0.20;;;;;;;;;;6273540;22;20039;-85
2023/04/26 02:08:27;;;;;;;0.20;0.20;;;;;;;;;;6273266;22;20016;-85
2023/04/26 02:10:53;;;;;;;0.20;0.20;;;;;;;;;;6273149;22;20333;-84
2023/04/26 02:13:19;;;;;;;0.20;0.20;;;;;;;;;;6271920;22;20085;-85
2023/04/26 02:15:46;;;;;;;0.20;0.20;;;;;;;;;;6269785;22;20012;-85
2023/04/26 02:18:12;;;;;;;0.20;0.20;;;;;;;;;;6272997;22;20065;-85
2023/04/26 02:20:57;;;;;;;0.20;0.20;;;;;;;;;;6273927;22;20332;-84
2023/04/26 02:23:26;;;;;;;0.20;0.20;;;;;;;;;;6272729;22;20326;-85
2023/04/26 02:26:04;;;;;;;0.20;0.20;;;;;;;;;;6271603;22;20051;-85
2023/04/26 02:28:37;;;;;;;0.20;0.20;;;;;;;;;;6274577;22;20016;-85
2023/04/26 02:31:28;;;;;;;0.20;0.20;;;;;;;;;;6267733;22;20012;-85
2023/04/26 02:33:55;;;;;;;0.20;0.20;;;;;;;;;;6274913;22;20023;-85
2023/04/26 02:36:24;;;;;;;0.20;0.20;;;;;;;;;;6272406;22;20022;-85
2023/04/26 02:38:53;;;;;;;0.20;0.20;;;;;;;;;;6275729;22;20491;-85
2023/04/26 02:41:19;;;;;;;0.20;0.20;;;;;;;;;;6273315;22;20562;-85
2023/04/26 02:43:46;;;;;;;0.20;0.20;;;;;;;;;;6273055;22;20027;-85
2023/04/26 02:46:13;;;;;;;0.20;0.20;;;;;;;;;;6274326;22;20015;-85
2023/04/26 02:48:39;;;;;;;0.20;0.20;;;;;;;;;;6275031;22;20016;-86
2023/04/26 02:51:05;;;;;;;0.20;0.20;;;;;;;;;;6275280;22;20094;-86
2023/04/26 02:55:59;;;;;;;0.20;0.20;;;;;;;;;;6275464;22;20023;-85
2023/04/26 02:58:31;;;;;;;0.20;0.20;;;;;;;;;;6276250;22;20023;-85
2023/04/26 03:01:07;;;;;;;0.20;0.20;;;;;;;;;;6279681;22;20099;-85
2023/04/26 03:03:33;;;;;;;0.20;0.20;;;;;;;;;;6298847;22;20038;-85
2023/04/26 03:06:11;;;;;;;0.20;0.20;;;;;;;;;;6292079;22;20404;-85
2023/04/26 03:08:53;;;;;;;0.28;0.28;;;;;;;;;;6273383;22;20016;-85
2023/04/26 03:11:19;;;;;;;0.20;0.20;;;;;;;;;;6273695;22;20518;-85
2023/04/26 03:13:54;;;;;;;0.20;0.20;;;;;;;;;;6273913;22;20015;-84
2023/04/26 03:16:23;;;;;;;0.20;0.20;;;;;;;;;;6273121;22;20089;-85
2023/04/26 03:18:50;;;;;;;0.10;0.10;;;;;;;;;;6272885;22;20020;-85
2023/04/26 03:21:16;;;;;;;0.20;0.20;;;;;;;;;;6275609;22;20031;-84
2023/04/26 03:23:45;;;;;;;0.20;0.20;;;;;;;;;;6273447;22;20016;-84
2023/04/26 03:26:26;;;;;;;0.20;0.20;;;;;;;;;;6274249;22;20015;-84
2023/04/26 03:28:52;;;;;;;0.20;0.20;;;;;;;;;;6275047;22;20017;-85
2023/04/26 03:31:20;;;;;;;0.20;0.20;;;;;;;;;;6272266;22;20463;-85
2023/04/26 03:33:49;;;;;;;0.20;0.20;;;;;;;;;;6275134;22;20011;-84
2023/04/26 03:36:16;;;;;;;0.20;0.20;;;;;;;;;;6275436;22;20092;-83
2023/04/26 03:38:42;;;;;;;0.20;0.20;;;;;;;;;;6275764;22;20018;-84
2023/04/26 03:41:08;;;;;;;0.20;0.20;;;;;;;;;;6272307;22;20020;-85
2023/04/26 03:43:40;;;;;;;0.20;0.20;;;;;;;;;;6274740;22;20734;-84
2023/04/26 03:46:06;;;;;;;0.20;0.20;;;;;;;;;;6271757;22;20340;-84
2023/04/26 03:48:32;;;;;;;0.20;0.20;;;;;;;;;;6274738;22;20016;-84
2023/04/26 03:50:59;;;;;;;0.20;0.20;;;;;;;;;;6274908;22;20027;-85
2023/04/26 03:53:25;;;;;;;0.20;0.20;;;;;;;;;;6275803;22;20114;-84
2023/04/26 03:55:54;;;;;;;0.17;0.17;;;;;;;;;;6274431;22;20411;-85
2023/04/26 03:58:38;;;;;;;0.10;0.10;;;;;;;;;;6274210;22;20030;-84
2023/04/26 04:01:10;;;;;;;0.30;0.30;;;;;;;;;;6273620;22;20018;-85
2023/04/26 04:03:36;;;;;;;0.20;0.20;;;;;;;;;;6277174;22;20066;-85
2023/04/26 04:06:09;;;;;;;0.20;0.20;;;;;;;;;;6275438;22;20520;-84
2023/04/26 04:08:47;;;;;;;0.20;0.20;;;;;;;;;;6275605;22;20382;-84
2023/04/26 04:11:13;;;;;;;0.20;0.20;;;;;;;;;;6274097;22;20037;-84
2023/04/26 04:13:42;;;;;;;0.20;0.20;;;;;;;;;;6275813;22;20514;-83
2023/04/26 04:16:09;;;;;;;0.20;0.20;;;;;;;;;;6270080;22;20016;-84
2023/04/26 04:18:38;;;;;;;0.20;0.20;;;;;;;;;;6275056;22;20023;-85
2023/04/26 04:21:04;;;;;;;0.20;0.20;;;;;;;;;;6274030;22;20543;-84
2023/04/26 04:23:30;;;;;;;0.20;0.20;;;;;;;;;;6275223;22;20047;-85
2023/04/26 04:25:59;;;;;;;0.20;0.20;;;;;;;;;;6273208;22;20325;-84
2023/04/26 04:28:41;;;;;;;0.20;0.20;;;;;;;;;;6275702;22;20050;-84
2023/04/26 04:31:23;;;;;;;0.20;0.20;;;;;;;;;;6272847;22;20012;-84
2023/04/26 04:33:50;;;;;;;0.20;0.20;;;;;;;;;;6277026;22;20091;-84
2023/04/26 04:36:26;;;;;;;0.20;0.20;;;;;;;;;;6274803;22;20447;-84
2023/04/26 04:38:52;;;;;;;0.20;0.20;;;4.50;99.90;;;;;;6277325;22;20047;-84
2023/04/26 04:41:21;;;;;;;0.20;0.20;;;4.40;99.90;;;;;;6277682;22;20038;-84
2023/04/26 04:43:47;;;;;;;0.20;0.20;;;4.40;99.90;;;;;;6277117;22;20088;-84
2023/04/26 04:46:12;;;;;;;0.20;0.20;;;4.80;99.90;;;;;;6289116;22;19996;-85
2023/04/26 04:48:38;;;;;;;0.20;0.20;;;4.50;99.90;;;;;;6300595;22;20010;-84
2023/04/26 04:51:05;;;;;;;0.20;0.20;;;4.80;99.90;;;;;;6297145;22;20094;-84
2023/04/26 04:53:50;;;;;;;0.20;0.20;;;4.50;99.90;;;;;;6276988;22;20015;-84
2023/04/26 04:56:45;;;;;;;0.20;0.20;;;4.60;99.90;;;;;;6272839;22;20012;-84
2023/04/26 04:59:23;;;;;;;0.20;0.20;;;4.60;99.90;;;;;;6274444;22;20037;-83
2023/04/26 05:01:51;;;;;;;0.20;0.20;;;4.70;99.90;;;;;;6271832;22;20023;-82
2023/04/26 05:04:32;;;;;;;0.20;0.20;;;4.70;99.90;;;;;;6271392;22;20012;-84
2023/04/26 05:07:25;;;;;;;0.20;0.20;;;4.70;99.90;;;;;;6273446;22;20015;-84
2023/04/26 05:10:04;;;;;;;0.20;0.20;;;4.80;99.90;;;;;;6274606;22;20078;-84
2023/04/26 05:12:45;;;;;;;0.10;0.10;;;4.80;99.90;;;;;;6272453;22;20452;-85
2023/04/26 05:15:20;;;;;;;0.20;0.20;;;5.30;99.90;;;;;;6271606;22;20008;-84
2023/04/26 05:17:49;;;;;;;0.20;0.20;;;5.50;99.90;;;;;;6271697;22;20027;-84
2023/04/26 05:20:14;;;;;;;0.20;0.20;;;5.90;99.90;;;;;;6274573;22;20208;-84
2023/04/26 05:23:24;;;;;;;0.10;0.10;;;4.90;99.90;;;;;;6271116;22;20375;-84
2023/04/26 05:26:00;;;;;;;0.20;0.20;;;4.90;99.90;;;;;;6271937;22;20023;-84
2023/04/26 05:28:41;;;;;;;0.20;0.20;;;5.00;99.90;;;;;;6272927;22;20012;-84
2023/04/26 05:31:10;;;;;;;0.10;0.10;;;5.00;99.90;;;;;;6272493;22;20026;-84
2023/04/26 05:33:36;;;;;;;0.20;0.20;;;2.80;99.90;;;;;;6271227;22;20012;-84
2023/04/26 05:36:03;;;;;;;0.20;0.20;;;6.00;99.90;;;;;;6270502;22;20427;-85
2023/04/26 05:38:29;;;;;;;0.20;0.20;;;4.90;99.90;;;;;;6271338;22;20065;-85
2023/04/26 05:40:55;;;;;;;0.20;0.20;;;4.90;99.90;;;;;;6272936;22;20027;-85
2023/04/26 05:43:20;;;;;;;0.20;0.20;;;4.90;99.90;;;;;;6274835;22;20012;-84
2023/04/26 05:46:07;;;;;;;0.20;0.20;;;5.50;99.90;;;;;;6270718;22;20015;-85
2023/04/26 05:48:39;;;;;;;0.20;0.20;;;5.00;99.90;;;;;;6272972;22;20038;-83
2023/04/26 05:51:11;;;;;;;0.10;0.10;;;5.10;99.90;;;;;;6271862;22;20479;-84
2023/04/26 05:54:06;;;;;;;0.20;0.20;;;5.10;99.90;;;;;;6272627;22;20059;-81
2023/04/26 05:56:57;;;;;;;0.17;0.17;;;4.80;99.90;;;;;;6239587;22;20020;-82
2023/04/26 05:59:22;;;;;;;0.20;0.20;;;5.30;99.90;;;;;;6270598;22;20069;-84
2023/04/26 06:01:48;;;;;;;0.20;0.20;;;5.30;99.90;;;;;;6272875;22;20853;-84
2023/04/26 06:04:14;;;;;;;0.17;0.17;;;5.40;99.90;;;;;;6271870;22;20030;-83
2023/04/26 06:06:40;;;;;;;0.20;0.20;;;5.50;99.90;;;;;;6272730;22;20023;-84
2023/04/26 06:09:11;;;;;;;0.20;0.20;;;5.50;99.90;;;;;;6275255;22;20035;-83
2023/04/26 06:11:37;;;;;;;0.20;0.20;;;5.90;99.90;;;;;;6273641;22;20019;-84
2023/04/26 06:14:03;;;;;;;0.20;0.20;;;5.50;99.90;;;;;;6272443;22;20023;-84
2023/04/26 06:16:29;;;;;;;0.20;0.20;;;5.60;99.90;;;;;;6274526;22;20348;-85
2023/04/26 06:18:58;;;;;;;0.20;0.20;;;5.60;99.90;;;;;;6273694;22;20022;-84
2023/04/26 06:21:23;;;;;;;0.20;0.20;;;5.60;99.90;;;;;;6272571;22;20023;-82
2023/04/26 06:23:49;;;;;;;0.20;0.20;;;5.70;99.90;;;;;;6273541;22;20012;-84
2023/04/26 06:26:15;;;;;;;0.10;0.10;;;5.80;99.90;;;;;;6275463;22;20022;-84
2023/04/26 06:28:40;;;;;;;0.20;0.20;;;6.10;99.90;;;;;;6274188;22;20043;-85
2023/04/26 06:31:06;;;;;;;0.20;0.20;;;6.00;99.90;;;;;;6258924;22;20009;-83
2023/04/26 06:34:02;;;;;;;0.20;0.20;;;6.10;99.90;;;;;;6275905;22;20026;-84
2023/04/26 06:38:53;;;;;;;0.20;0.20;;;6.30;99.90;;;;;;6304135;22;20102;-83
2023/04/26 06:41:25;;;;;;;0.20;0.20;;;6.40;99.90;;;;;;6276296;22;20482;-82
2023/04/26 06:43:51;;;;;;;0.20;0.20;;;6.40;99.90;;;;;;6276296;22;20370;-82
2023/04/26 06:46:23;;;;;;;0.20;0.20;;;6.60;99.90;;;;;;6277604;22;20098;-82
2023/04/26 06:49:01;;;;;;;0.20;0.20;;;6.60;99.90;;;;;;6306827;22;20019;-82
2023/04/26 06:51:30;;;;;;;0.20;0.20;;;6.70;99.90;;;;;;6278717;22;20038;-82
2023/04/26 06:54:01;;;;;;;0.20;0.20;;;6.80;99.90;;;;;;6306443;22;20015;-81
2023/04/26 06:56:46;;;;;;;;;;;6.80;99.90;;;;;;6278487;22;20451;-82
2023/04/26 06:59:27;;;;;;;0.10;0.10;;;6.90;99.90;;;;;;6277991;22;19922;-83
2023/04/26 07:01:59;;;;;;;0.20;0.20;;;7.00;99.90;;;;;;6277716;22;20022;-83
2023/04/26 07:04:43;;;;;;;0.20;0.20;;;7.40;99.90;;;;;;6277993;22;20018;-83
2023/04/26 07:07:20;;;;;;;0.20;0.20;;;7.10;99.90;;;;;;6279443;22;20051;-85
2023/04/26 07:09:46;;;;;;;0.17;0.17;;;7.20;99.90;;;;;;6278774;22;20015;-83
2023/04/26 07:12:40;;;;;;;0.10;0.10;;;7.10;99.90;;;;;;6277454;22;20017;-83
2023/04/26 07:15:08;;;;;;;0.20;0.20;;;7.30;99.90;;;;;;6277502;22;20534;-83
2023/04/26 07:17:58;;;;;;;0.20;0.20;;;7.10;99.90;;;;;;6259729;22;20014;-82
2023/04/26 07:24:05;;;;;;;0.20;0.20;;;7.50;99.90;;;;;;6306413;22;20076;-83
2023/04/26 07:26:40;;;;;;;0.10;0.10;;;7.50;99.90;;;;;;6278188;22;20015;-83
2023/04/26 07:29:15;;;;;;;0.20;0.20;;;7.50;99.90;;;;;;6306597;22;20015;-83
2023/04/26 07:31:48;;;;;;;0.20;0.20;;;7.50;99.90;;;;;;6265771;22;20062;-83
2023/04/26 07:34:31;;;;;;;0.20;0.20;;;8.40;99.90;;;;;;6275245;22;20050;-83
2023/04/26 07:37:03;;;;;;;0.10;0.10;;;7.80;99.90;;;;;;6272841;22;20015;-81
2023/04/26 07:39:29;;;;;;;0.13;0.13;;;8.30;99.90;;;;;;6271806;22;20539;-83
2023/04/26 07:41:57;;;;;;;0.15;0.15;;;8.40;99.90;;;;;;6274253;22;20015;-82
2023/04/26 07:44:23;;;;;;;0.20;0.20;;;8.10;99.90;;;;;;6268466;22;20733;-83
2023/04/26 07:46:50;;;;;;;0.10;0.10;;;7.80;99.90;;;;;;6271726;22;20066;-83
2023/04/26 07:49:21;;;;;;;0.20;0.20;;;8.00;99.90;;;;;;6266767;22;20456;-82
2023/04/26 07:52:01;;;;;;;0.20;0.20;;;8.00;99.90;;;;;;6272490;22;20016;-82
2023/04/26 07:54:32;;;;;;;0.20;0.20;;;8.00;99.90;;;;;;6275343;22;20054;-82
2023/04/26 07:56:58;;;;;;;0.20;0.20;;;8.00;99.90;;;;;;6273063;22;20030;-82
2023/04/26 07:59:27;;;;;;;0.10;0.10;;;8.20;99.90;;;;;;6267989;22;20020;-83
2023/04/26 08:01:56;;;;;;;0.15;0.15;;;8.60;99.90;;;;;;6272576;22;20031;-82
2023/04/26 08:04:39;;;;;;;0.20;0.20;;;8.10;99.90;;;;;;6244215;22;20019;-82
2023/04/26 08:07:05;;;;;;;0.20;0.20;;;7.30;99.90;;;;;;6273721;22;20043;-83
2023/04/26 08:09:40;;;;;;;0.10;0.10;;;8.30;99.90;;;;;;6270803;22;20047;-81
2023/04/26 08:12:14;;;;;;;0.15;0.15;;;8.30;99.90;;;;;;6271731;22;20020;-81
2023/04/26 08:14:40;;;;;;;0.20;0.20;;;8.40;99.90;;;;;;6289367;22;20012;-82
2023/04/26 08:17:12;;;;;;;0.10;0.10;;;8.40;99.90;;;;;;6293615;22;20030;-82
2023/04/26 08:19:46;;;;;;;0.20;0.20;;;9.40;99.90;;;;;;6276263;22;20042;-81
2023/04/26 08:22:12;;;;;;;0.20;0.20;;;8.40;99.90;;;;;;6271878;22;20026;-79
2023/04/26 08:24:38;;;;;;;0.20;0.20;;;9.20;99.90;;;;;;6273653;22;20011;-81
2023/04/26 08:27:13;;;;;;;0.15;0.15;;;8.40;99.90;;;;;;6270561;22;20104;-80
2023/04/26 08:30:35;;;;;;;0.20;0.20;;;8.40;99.90;;;;;;6269282;22;20649;-80
2023/04/26 08:33:33;;;;;;;0.20;0.20;;;8.40;99.90;;;;;;6302432;22;20026;-80
2023/04/26 08:36:11;;;;;;;0.20;0.20;;;7.00;99.40;;;;;;6270980;22;20455;-80
2023/04/26 08:38:41;;;;;;;0.20;0.20;;;8.50;99.90;;;;;;6266899;22;20054;-81
2023/04/26 08:41:57;;;;;;;0.15;0.15;;;8.60;99.90;;;;;;6267566;22;20016;-81
2023/04/26 08:49:11;;;;;;;0.10;0.10;;;9.30;99.90;;;;;;6301156;22;20485;-79
2023/04/26 08:52:41;;;;;;;0.20;0.20;;;7.20;99.70;;;;;;6300814;22;20099;-80
2023/04/26 08:55:23;;;;;;;0.20;0.20;;;8.50;99.90;;;;;;6301579;22;20489;-81
2023/04/26 08:58:00;;;;;;;0.10;0.10;;;7.80;99.90;;;;;;6272982;22;20025;-80
2023/04/26 09:00:47;;;;;;;0.20;0.20;;;8.30;99.90;;;;;;6272328;22;20011;-80
2023/04/26 09:03:13;;;;;;;0.20;0.20;;;8.30;99.90;;;;;;6301141;22;20023;-81
2023/04/26 09:05:52;;;;;;;0.20;0.20;;;8.30;99.90;;;;;;6273403;22;20045;-80
2023/04/26 09:08:24;;;;;;;0.10;0.10;;;8.60;99.90;;;;;;6302039;22;20379;-82
2023/04/26 09:10:54;;;;;;;0.10;0.10;;;8.30;99.90;;;;;;6272925;22;20026;-80
2023/04/26 09:13:29;;;;;;;0.20;0.20;;;8.30;99.90;;;;;;6274310;22;20026;-82
2023/04/26 09:15:55;;;;;;;0.17;0.17;;;8.40;99.90;;;;;;6299521;22;20463;-80
2023/04/26 09:18:56;;;;;;;0.20;0.20;;;8.40;99.90;;;;;;6274145;22;20026;-82
2023/04/26 09:21:22;;;;;;;0.20;0.20;;;8.00;99.90;;;;;;6300557;22;20019;-82
2023/04/26 09:24:09;;;;;;;0.20;0.20;;;8.50;99.90;;;;;;6273846;22;20022;-82
2023/04/26 09:26:53;;;;;;;0.10;0.10;;;8.50;99.90;;;;;;6305244;22;20019;-80
2023/04/26 09:29:19;;;;;;;0.20;0.20;;;9.20;99.90;;;;;;6275129;22;20011;-81
2023/04/26 09:32:06;;;;;;;0.10;0.10;;;8.40;99.90;;;;;;6303017;22;20391;-83
2023/04/26 09:35:14;;;;;;;0.10;0.10;;;8.40;99.90;;;;;;6273735;22;20015;-82
2023/04/26 09:38:03;;;;;;;0.10;0.10;;;7.80;99.90;;;;;;6273003;22;20019;-84
2023/04/26 09:40:54;;;;;;;0.10;0.10;;;8.40;99.90;;;;;;6276352;22;20015;-81
2023/04/26 09:43:23;;;;;;;0.20;0.20;;;8.40;99.90;;;;;;6277702;22;20019;-80
2023/04/26 09:46:04;;;;;;;0.20;0.20;;;8.50;99.90;;;;;;6276715;22;20340;-81
2023/04/26 09:48:39;;;;;;;0.10;0.10;;;8.50;99.90;;;;;;6279208;22;20019;-81
2023/04/26 09:51:20;;;;;;;0.20;0.20;;;8.50;99.90;;;;;;6280041;22;20025;-82
2023/04/26 09:53:49;;;;;;;0.20;0.20;;;8.70;99.90;;;;;;6306409;22;20016;-81
2023/04/26 09:56:20;;;;;;;0.20;0.20;;;8.70;99.90;;;;;;6310744;22;20026;-81
2023/04/26 09:58:46;;;;;;;0.20;0.20;;;8.80;99.90;;;;;;6330091;22;20038;-80
2023/04/26 10:01:30;;;;;;;0.10;0.10;;;9.00;99.90;;;;;;6321736;22;20023;-82
2023/04/26 10:04:03;;;;;;;0.10;0.10;;;9.00;99.90;;;;;;6276445;22;20440;-81
2023/04/26 10:06:29;;;;;;;0.20;0.20;;;9.20;99.20;;;;;;6303058;22;20019;-82
2023/04/26 10:09:00;;;;;;;0.20;0.20;;;9.20;99.10;;;;;;6305278;22;20080;-83
2023/04/26 10:11:37;;;;;;;0.20;0.20;;;10.00;99.40;;;;;;6304923;22;20026;-83
2023/04/26 10:14:15;;;;;;;0.15;0.15;;;9.30;99.10;;;;;;6276132;22;20015;-83
2023/04/26 10:16:51;;;;;;;0.15;0.15;;;9.70;99.00;;;;;;6293838;22;20015;-82
2023/04/26 10:19:46;;;;;;;0.20;0.20;;;9.80;98.70;;;;;;6303447;22;20050;-81
2023/04/26 10:22:45;;;;;;;0.20;0.20;;;9.20;98.00;;;;;;6303126;22;20015;-83
2023/04/26 10:27:52;;;;;;;0.20;0.20;;;9.80;97.70;;;;;;6301944;22;20038;-82
2023/04/26 10:30:22;;;;;;;0.15;0.15;;;9.80;97.40;;;;;;6275484;22;20103;-82
2023/04/26 10:33:06;;;;;;;0.20;0.20;;;9.80;97.50;;;;;;6276612;22;20201;-82
2023/04/26 10:35:36;;;;;;;0.20;0.20;;;10.30;97.90;;;;;;6303636;22;20022;-82
2023/04/26 10:38:02;;;;;;;0.13;0.13;;;9.30;97.50;;;;;;6277078;22;20019;-82
2023/04/26 10:40:47;;;;;;;0.20;0.20;;;10.00;97.70;;;;;;6276199;22;20463;-81
2023/04/26 10:44:00;;;;;;;0.10;0.10;;;10.00;97.70;;;;;;6302238;22;20056;-82
2023/04/26 10:46:35;;;;;;;0.20;0.20;;;9.90;96.90;;;;;;6147964;23;20343;-81
2023/04/26 10:49:31;;;;;;;0.10;0.10;;;9.80;97.00;;;;;;6124883;23;20022;-82
2023/04/26 10:52:19;;;;;;;0.20;0.20;;;9.60;96.70;;;;;;6150308;23;20021;-81
2023/04/26 10:55:09;;;;;;;0.20;0.20;;;9.40;97.20;;;;;;6125181;23;20022;-81
2023/04/26 10:57:51;;;;;;;0.20;0.20;;;9.30;97.80;;;;;;6149794;23;20068;-81
2023/04/26 11:00:35;;;;;;;0.20;0.20;;;9.10;98.20;;;;;;6206829;22;20058;-81
2023/04/26 11:03:14;;;;;;;0.10;0.10;;;9.00;98.60;;;;;;6304926;22;20023;-81
2023/04/26 11:05:58;;;;;;;0.10;0.10;;;9.30;99.00;;;;;;6277117;22;20062;-80
2023/04/26 11:08:42;;;;;;;0.15;0.15;;;8.90;99.20;;;;;;6278418;22;20015;-81
2023/04/26 11:11:12;;;;;;;0.10;0.10;;;8.80;99.30;;;;;;6276224;22;20073;-81
2023/04/26 11:13:42;;;;;;;0.10;0.10;;;9.60;99.50;;;;;;6278156;22;20012;-81
2023/04/26 11:16:21;;;;;;;0.20;0.20;;;8.90;99.50;;;;;;6304711;22;20390;-79
2023/04/26 11:19:14;;;;;;;0.17;0.17;;;9.60;99.90;;;;;;6305820;22;20012;-80
2023/04/26 11:21:40;;;;;;;0.10;0.10;;;8.90;99.70;;;;;;6278106;22;20101;-81
2023/04/26 11:24:09;;;;;;;0.20;0.20;;;10.30;99.90;;;;;;6277779;22;20046;-80
2023/04/26 11:26:35;;;;;;;0.15;0.15;;;9.60;99.90;;;;;;6276044;22;20050;-80
2023/04/26 11:29:02;;;;;;;0.20;0.20;;;10.30;99.90;;;;;;6306379;22;20019;-81
2023/04/26 11:31:29;;;;;;;0.10;0.10;;;10.10;99.90;;;;;;6277792;22;20022;-81
2023/04/26 11:34:21;;;;;;;0.13;0.13;;;10.50;99.90;;;;;;6235216;22;20049;-80
2023/04/26 11:36:53;;;;;;;0.10;0.10;;;11.00;99.40;;;;;;6309460;22;20255;-83
2023/04/26 11:39:55;;;;;;;0.10;0.10;;;11.00;98.70;;;;;;6282272;22;20027;-80
2023/04/26 11:42:33;;;;;;;0.10;0.10;;;10.90;97.80;;;;;;6266181;22;20011;-83
2023/04/26 11:45:30;;;;;;;0.20;0.20;;;10.30;97.40;;;;;;6285888;22;20525;-83
2023/04/26 11:48:00;;;;;;;0.20;0.20;;;10.70;96.40;;;;;;6278999;22;20022;-82
2023/04/26 11:50:37;;;;;;;0.10;0.10;;;10.70;96.80;;;;;;6278311;22;20098;-82
2023/04/26 11:53:12;;;;;;;0.20;0.20;;;10.60;97.40;;;;;;6277224;22;20343;-83
2023/04/26 11:55:59;;;;;;;0.20;0.20;;;10.60;96.90;;;;;;6277882;22;20015;-82
2023/04/26 11:58:25;;;;;;;0.10;0.10;;;10.60;96.50;;;;;;6278782;22;20251;-82
2023/04/26 12:01:04;;;;;;;0.10;0.10;;;10.40;95.40;;;;;;6303463;22;20050;-83
2023/04/26 12:03:38;;;;;;;0.10;0.10;;;10.30;95.90;;;;;;6278409;22;20019;-82
2023/04/26 12:06:13;;;;;;;0.20;0.20;;;10.80;96.40;;;;;;6277474;22;20084;-82
2023/04/26 12:09:20;;;;;;;0.10;0.10;;;9.60;96.30;;;;;;6278248;22;20015;-83
2023/04/26 12:12:10;;;;;;;0.10;0.10;;;9.80;95.70;;;;;;6305260;22;20353;-82
2023/04/26 12:14:37;;;;;;;0.15;0.15;;;9.90;96.00;;;;;;6302832;22;20062;-81
2023/04/26 12:17:14;;;;;;;0.10;0.10;;;10.40;97.50;;;;;;6304917;22;20026;-82
2023/04/26 12:20:02;;;;;;;0.10;0.10;;;10.60;97.80;;;;;;6304450;22;20325;-81
2023/04/26 12:23:04;;;;;;;0.15;0.15;;;10.80;97.90;;;;;;6235759;22;20497;-81
2023/04/26 12:25:32;;;;;;;0.10;0.10;;;10.90;98.20;;;;;;6276289;22;20026;-81
2023/04/26 12:28:23;;;;;;;0.10;0.10;;;11.20;98.00;;;;;;6270492;22;20360;-83
2023/04/26 12:31:10;;;;;;;0.20;0.20;;;11.30;97.50;;;;;;6270483;22;20352;-81
2023/04/26 12:34:21;;;;;;;0.20;0.20;;;11.40;97.30;;;;;;6273311;22;20016;-81
2023/04/26 12:36:55;;;;;;;0.10;0.10;;;11.60;97.80;;;;;;6256641;22;20015;-81
2023/04/26 12:39:24;;;;;;;0.20;0.20;;;11.90;97.30;;;;;;6273806;22;20011;-82
2023/04/26 12:41:50;;;;;;;0.20;0.20;;;12.00;95.80;;;;;;6272103;22;20024;-82
2023/04/26 12:44:22;;;;;;;0.15;0.15;;;12.40;95.10;;;;;;6273571;22;20513;-82
2023/04/26 12:46:48;;;;;;;0.10;0.10;;;11.30;95.10;;;;;;6272886;22;20325;-82
2023/04/26 12:49:16;;;;;;;0.10;0.10;;;11.50;95.50;;;;;;6271941;22;20020;-81
2023/04/26 12:51:42;;;;;;;0.10;0.10;;;11.40;95.30;;;;;;6274810;22;20011;-81
2023/04/26 12:54:29;;;;;;;0.10;0.10;;;11.30;94.60;;;;;;6273057;22;20107;-82
2023/04/26 12:57:08;;;;;;;0.20;0.20;;;11.10;94.90;;;;;;6271382;22;20020;-82
2023/04/26 12:59:43;;;;;;;0.20;0.20;;;11.00;94.50;;;;;;6271134;22;20367;-82
2023/04/26 13:02:31;;;;;;;0.10;0.10;;;10.90;94.20;;;;;;6274831;22;20027;-81
2023/04/26 13:05:00;;;;;;;0.20;0.20;;;10.70;94.20;;;;;;6286149;22;20098;-83
2023/04/26 13:08:00;;;;;;;0.10;0.10;;;10.70;94.10;;;;;;6306980;22;20051;-83
2023/04/26 13:10:38;;;;;;;0.20;0.20;;;11.30;94.90;;;;;;6197375;22;20019;-82
2023/04/26 13:13:04;;;;;;;0.10;0.10;;;10.90;94.70;;;;;;6307584;22;20011;-83
2023/04/26 13:15:32;;;;;;;0.20;0.20;;;10.80;94.70;;;;;;6305389;22;20507;-82
2023/04/26 13:17:58;;;;;;;0.20;0.20;;;10.80;94.40;;;;;;6279845;22;20019;-82
2023/04/26 13:20:24;;;;;;;0.10;0.10;;;11.60;94.40;;;;;;6279851;22;20060;-84
2023/04/26 13:22:53;;;;;;;0.10;0.10;;;11.00;94.80;;;;;;6283322;22;20022;-83
2023/04/26 13:25:19;;;;;;;0.10;0.10;;;11.20;95.00;;;;;;6302320;22;20076;-83
2023/04/26 13:27:45;;;;;;;0.10;0.10;;;11.60;94.30;;;;;;6289801;22;20098;-82
2023/04/26 13:30:17;;;;;;;0.10;0.10;;;11.50;94.00;;;;;;6303350;22;20039;-82
2023/04/26 13:32:54;;;;;;;0.20;0.20;;;11.60;94.00;;;;;;6304949;22;20050;-82
2023/04/26 13:35:48;;;;;;;0.10;0.10;;;12.20;94.40;;;;;;6276854;22;20019;-82
2023/04/26 13:38:14;;;;;;;0.20;0.20;;;11.70;94.20;;;;;;6276088;22;20090;-83
2023/04/26 13:40:50;;;;;;;;;;;;;;;;;;;;;
2023/04/26 13:43:35;;;;;;;0.20;0.20;;;11.90;93.20;;;;;;6277291;22;20046;-83
2023/04/26 13:46:00;;;;;;;0.20;0.20;;;12.20;93.40;;;;;;6274433;22;20232;-81
2023/04/26 13:48:26;;;;;;;0.10;0.10;;;12.00;92.20;;;;;;6275769;22;20056;-80
2023/04/26 13:50:55;;;;;;;0.20;0.20;;;12.00;91.90;;;;;;6305199;22;20366;-80
2023/04/26 13:53:21;;;;;;;0.10;0.10;;;11.80;92.20;;;;;;6277349;22;20010;-81
2023/04/26 13:55:47;;;;;;;0.10;0.10;;;11.80;92.10;;;;;;6276499;22;20022;-81
2023/04/26 13:58:13;;;;;;;0.20;0.20;;;11.70;92.20;;;;;;6277165;22;20038;-81
2023/04/26 14:00:44;;;;;;;0.10;0.10;;;11.50;91.80;;;;;;6304136;22;20446;-82
2023/04/26 14:03:27;;;;;;;;;;;12.00;91.30;;;;;;6277632;22;20049;-83
2023/04/26 14:06:08;;;;;;;0.10;0.10;;;11.30;91.40;;;;;;6270705;22;19915;-83
2023/04/26 14:08:43;;;;;;;0.20;0.20;;;11.20;91.00;;;;;;6273864;22;20015;-83
2023/04/26 14:11:12;;;;;;;0.10;0.10;;;10.90;90.90;;;;;;6272119;22;20024;-82
2023/04/26 14:13:38;;;;;;;0.10;0.10;;;11.30;91.30;;;;;;6269905;22;20056;-82
2023/04/26 14:16:04;;;;;;;0.15;0.15;;;10.60;91.20;;;;;;6272924;22;20011;-83
2023/04/26 14:18:30;;;;;;;0.10;0.10;;;10.40;91.10;;;;;;6272518;22;20051;-83
2023/04/26 14:20:56;;;;;;;0.20;0.20;;;10.10;91.20;;;;;;6272945;22;20098;-82
2023/04/26 14:23:25;;;;;;;0.10;0.10;;;10.10;91.80;;;;;;6272467;22;20114;-82
2023/04/26 14:25:51;;;;;;;0.17;0.17;;;10.00;92.10;;;;;;6273865;22;20137;-82
2023/04/26 14:28:17;;;;;;;0.20;0.20;;;10.30;92.30;;;;;;6272986;22;20020;-82